Time;durP1;ratioP1;P1;durP2;ratioP2;P2;SDS_P1;SDS_P2;PMS_P1;PMS_P2;Temp;Humidity;BMP_temperature;BMP_pressure;BME280_temperature;BME280_humidity;BME280_pressure;Samples;Min_cycle;Max_cycle;Signal;HPM_P1;HPM_P2
2022/11/03 00:01:12;;;;;;;11.38;3.83;;;;;;;16.81;50.94;95022.63;5072555;28;20702;-60
2022/11/03 00:03:37;;;;;;;7.30;3.97;;;;;;;16.82;51.03;95025.00;5072662;28;20207;-60
2022/11/03 00:06:03;;;;;;;9.95;3.90;;;;;;;16.93;50.64;95040.09;5072815;28;20189;-60
2022/11/03 00:08:32;;;;;;;7.68;4.18;;;;;;;16.88;51.05;95031.28;5072665;28;20586;-60
2022/11/03 00:11:09;;;;;;;10.43;4.18;;;;;;;16.87;51.46;95027.13;5072503;28;20280;-60
2022/11/03 00:13:36;;;;;;;8.68;3.90;;;;;;;16.76;51.25;95026.47;5072706;28;20189;-59
2022/11/03 00:16:02;;;;;;;12.43;3.97;;;;;;;16.69;51.96;95020.34;5072525;28;20216;-61
2022/11/03 00:18:28;;;;;;;8.57;4.32;;;;;;;16.82;51.57;95022.44;5072571;28;20570;-59
2022/11/03 00:21:02;;;;;;;8.48;3.70;;;;;;;16.67;52.30;95011.97;5072300;28;20216;-60
2022/11/03 00:23:30;;;;;;;9.05;3.72;;;;;;;16.62;52.92;95003.94;5072171;28;20211;-61
2022/11/03 00:26:03;;;;;;;7.88;4.00;;;;;;;16.59;53.43;94991.44;5071029;28;20185;-62
2022/11/03 00:28:32;;;;;;;5.20;3.63;;;;;;;16.62;53.61;94993.66;5072366;28;20678;-60
2022/11/03 00:31:00;;;;;;;9.80;3.88;;;;;;;16.60;54.10;94992.25;5072338;28;20280;-60
2022/11/03 00:33:30;;;;;;;8.02;3.50;;;;;;;16.61;54.08;94991.28;5073118;22;20228;-61
2022/11/03 00:35:57;;;;;;;6.68;3.45;;;;;;;16.62;54.21;94988.53;5050787;28;20190;-61
2022/11/03 00:38:23;;;;;;;6.60;3.83;;;;;;;16.70;54.68;94983.41;5052583;28;20193;-60
2022/11/03 00:40:56;;;;;;;7.70;3.70;;;;;;;16.71;55.13;94981.66;5052148;28;20717;-60
2022/11/03 00:43:24;;;;;;;7.05;3.30;;;;;;;16.68;55.58;94967.38;5052384;28;20193;-61
2022/11/03 00:45:49;;;;;;;10.18;3.40;;;;;;;16.72;55.80;94973.78;5052026;28;20216;-59
2022/11/03 00:48:33;;;;;;;9.43;3.75;;;;;;;16.72;55.40;94985.84;5052849;28;20269;-59
2022/11/03 00:51:03;;;;;;;5.35;3.35;;;;;;;16.72;55.41;94986.63;5050680;28;20197;-60
2022/11/03 00:53:30;;;;;;;6.32;3.97;;;;;;;16.87;55.57;94981.66;5052134;28;20364;-60
2022/11/03 00:55:56;;;;;;;7.10;3.20;;;;;;;16.92;55.28;94986.34;5051971;28;20256;-61
2022/11/03 00:58:21;;;;;;;10.27;3.65;;;;;;;16.84;55.36;94986.31;5051838;28;20282;-60
2022/11/03 01:00:47;;;;;;;10.27;4.00;;;;;;;16.85;55.31;94983.59;5051732;28;20676;-60
2022/11/03 01:03:12;;;;;;;7.75;3.72;;;;;;;16.72;55.19;94996.91;5051978;28;20681;-59
2022/11/03 01:08:33;;;;;;;6.70;3.55;;;;;;;16.82;55.69;94983.13;5052202;28;20343;-61
2022/11/03 01:13:56;;;;;;;8.00;3.78;;;;;;;16.81;56.12;94973.81;5051813;28;20224;-59
2022/11/03 01:16:22;;;;;;;9.73;4.00;;;;;;;16.81;55.36;94982.31;5051493;28;20190;-59
2022/11/03 01:18:47;;;;;;;12.25;4.10;;;;;;;16.56;56.52;94968.63;5051761;28;20246;-60
2022/11/03 01:21:13;;;;;;;10.23;4.15;;;;;;;16.68;56.96;94964.78;5051624;28;20224;-60
2022/11/03 01:23:38;;;;;;;12.05;4.85;;;;;;;16.71;56.71;94974.75;5051811;28;20221;-59
2022/11/03 01:26:06;;;;;;;9.98;4.70;;;;;;;16.57;56.92;94970.25;5051358;28;20671;-61
2022/11/03 01:28:35;;;;;;;8.05;4.35;;;;;;;16.55;56.91;94971.38;5051403;28;20186;-60
2022/11/03 01:31:06;;;;;;;8.20;4.65;;;;;;;16.43;57.50;94963.13;5051477;28;20320;-63
2022/11/03 01:33:32;;;;;;;12.35;4.50;;;;;;;16.43;57.27;94967.47;5050214;28;20201;-60
2022/11/03 01:35:57;;;;;;;8.95;4.22;;;;;;;16.37;58.03;94950.94;5051392;28;20190;-62
2022/11/03 01:38:23;;;;;;;8.75;4.10;;;;;;;16.30;58.13;94947.38;5051405;28;20561;-62
2022/11/03 01:40:49;;;;;;;11.73;5.05;;;;;;;16.18;58.53;94943.50;5050984;28;20303;-61
2022/11/03 01:43:20;;;;;;;11.93;4.43;;;;;;;16.20;59.25;94945.94;5051001;28;20227;-59
2022/11/03 01:45:50;;;;;;;9.18;5.18;;;;;;;16.10;59.57;94940.91;5050867;28;20208;-60
2022/11/03 01:48:17;;;;;;;11.05;3.78;;;;;;;16.06;59.98;94939.63;5051080;28;20208;-59
2022/11/03 01:50:46;;;;;;;13.55;4.93;;;;;;;16.08;60.15;94947.97;5049687;28;20339;-60
2022/11/03 01:53:13;;;;;;;11.90;5.63;;;;;;;16.02;61.49;94924.72;5051209;28;20189;-60
2022/11/03 01:55:38;;;;;;;10.40;5.30;;;;;;;16.00;61.96;94917.16;5051035;28;20679;-59
2022/11/03 01:58:18;;;;;;;8.88;5.65;;;;;;;15.96;62.79;94914.13;5051159;28;20284;-60
2022/11/03 02:00:47;;;;;;;12.05;6.50;;;;;;;15.98;63.47;94913.97;5033155;28;20683;-59
2022/11/03 02:03:14;;;;;;;8.35;5.93;;;;;;;15.99;63.84;94913.00;5050687;28;20190;-61
2022/11/03 02:05:43;;;;;;;13.05;6.18;;;;;;;15.85;64.77;94911.03;5050575;28;20221;-60
2022/11/03 02:08:18;;;;;;;11.80;5.95;;;;;;;15.82;64.91;94911.34;5050490;28;20193;-60
2022/11/03 02:10:46;;;;;;;15.60;7.57;;;;;;;15.82;65.31;94917.28;5050709;28;20216;-60
2022/11/03 02:13:19;;;;;;;15.43;6.88;;;;;;;15.82;65.53;94913.91;5050959;28;20193;-60
2022/11/03 02:15:50;;;;;;;11.35;6.43;;;;;;;15.67;66.36;94908.59;5050767;28;20672;-63
2022/11/03 02:18:18;;;;;;;14.32;7.40;;;;;;;15.57;67.04;94902.78;5032991;28;20303;-60
2022/11/03 02:20:48;;;;;;;13.85;7.15;;;;;;;15.61;66.62;94904.06;5050461;28;20209;-61
2022/11/03 02:23:30;;;;;;;12.80;6.60;;;;;;;15.62;66.84;94917.66;5050814;28;20375;-59
2022/11/03 02:25:59;;;;;;;12.73;6.60;;;;;;;15.61;66.61;94918.66;5050596;28;20185;-61
2022/11/03 02:28:31;;;;;;;12.93;6.80;;;;;;;15.60;66.72;94917.84;5050578;28;20186;-61
2022/11/03 02:31:26;;;;;;;14.55;6.97;;;;;;;15.55;67.25;94916.69;5050650;28;20182;-59
2022/11/03 02:33:58;;;;;;;12.07;6.28;;;;;;;15.61;67.10;94928.91;5050868;28;20213;-61
2022/11/03 02:36:34;;;;;;;11.85;6.35;;;;;;;15.62;67.01;94928.72;5050298;28;20190;-60
2022/11/03 02:39:10;;;;;;;10.93;6.72;;;;;;;15.59;66.94;94928.25;5050472;28;20307;-61
2022/11/03 02:41:38;;;;;;;15.80;7.18;;;;;;;15.57;66.93;94932.72;5050315;28;20263;-61
2022/11/03 02:44:07;;;;;;;13.88;7.10;;;;;;;15.60;67.06;94938.34;5050305;28;20217;-61
2022/11/03 02:46:34;;;;;;;12.35;7.00;;;;;;;15.58;67.67;94936.88;5048863;28;20185;-60
2022/11/03 02:49:00;;;;;;;16.63;7.22;;;;;;;15.56;67.78;94925.97;5050181;28;20209;-60
2022/11/03 02:51:25;;;;;;;14.52;6.75;;;;;;;15.70;67.33;94943.34;5050224;28;20188;-60
2022/11/03 02:54:05;;;;;;;12.40;6.90;;;;;;;15.71;67.44;94940.66;5050091;28;20211;-60
2022/11/03 02:56:36;;;;;;;14.20;7.35;;;;;;;15.89;67.02;94953.38;5050300;28;20246;-60
2022/11/03 02:59:09;;;;;;;13.52;6.95;;;;;;;15.88;66.58;94960.25;5052049;28;20211;-61
2022/11/03 03:01:45;;;;;;;13.73;7.85;;;;;;;16.05;66.12;94978.25;5053763;28;20236;-60
2022/11/03 03:04:17;;;;;;;10.82;6.55;;;;;;;16.17;65.44;94989.84;5053780;28;20295;-60
2022/11/03 03:06:48;;;;;;;12.48;7.55;;;;;;;16.22;65.77;94982.50;5053614;28;20254;-60
2022/11/03 03:09:23;;;;;;;12.85;7.57;;;;;;;16.44;64.95;94990.41;5053606;28;20244;-60
2022/11/03 03:11:52;;;;;;;10.18;6.65;;;;;;;16.31;64.41;95005.44;5053550;28;20185;-59
2022/11/03 03:14:23;;;;;;;9.63;6.93;;;;;;;16.10;64.71;95002.47;5053216;28;20660;-60
2022/11/03 03:17:04;;;;;;;12.43;7.07;;;;;;;16.03;65.05;94988.69;5053718;28;20193;-61
2022/11/03 03:19:52;;;;;;;15.32;7.20;;;;;;;16.00;65.34;94993.31;5054210;23;20692;-60
2022/11/03 03:22:38;;;;;;;11.07;6.70;;;;;;;15.95;66.19;94983.53;5033456;28;20264;-60
2022/11/03 03:25:28;;;;;;;11.63;6.90;;;;;;;15.92;64.76;94992.31;5033385;28;20714;-60
2022/11/03 03:28:00;;;;;;;12.52;6.80;;;;;;;15.90;65.15;94983.16;5033407;28;20261;-61
2022/11/03 03:30:28;;;;;;;12.20;7.28;;;;;;;15.87;65.42;94983.47;5033623;28;20214;-60
2022/11/03 03:32:56;;;;;;;11.48;6.15;;;;;;;15.80;65.73;94979.91;5033201;28;20214;-62
2022/11/03 03:35:25;;;;;;;12.00;6.65;;;;;;;15.76;66.06;94968.34;5033523;28;20222;-61
2022/11/03 03:37:56;;;;;;;14.68;6.80;;;;;;;15.80;65.68;94983.28;5033055;28;20209;-60
2022/11/03 03:40:33;;;;;;;10.40;6.25;;;;;;;15.83;66.54;94974.50;5033620;28;20769;-62
2022/11/03 03:43:01;;;;;;;12.52;6.65;;;;;;;15.85;65.98;94993.09;5015867;28;20332;-60
2022/11/03 03:45:37;;;;;;;12.45;7.13;;;;;;;15.91;65.77;94993.28;5033791;28;20275;-61
2022/11/03 03:48:16;;;;;;;11.52;7.47;;;;;;;16.11;65.60;95003.28;5033951;28;20193;-63
2022/11/03 03:50:45;;;;;;;12.73;7.05;;;;;;;16.12;66.29;94986.97;5015940;28;20305;-60
2022/11/03 03:53:12;;;;;;;9.70;6.78;;;;;;;16.03;66.12;94993.81;5032969;28;20201;-60
2022/11/03 03:55:44;;;;;;;17.30;7.63;;;;;;;16.00;66.59;94985.63;5032828;28;20198;-61
2022/11/03 03:58:11;;;;;;;15.15;7.07;;;;;;;16.20;66.32;94997.25;5032721;28;20194;-59
2022/11/03 04:00:39;;;;;;;13.68;7.03;;;;;;;16.09;65.97;94995.75;5015069;28;20210;-61
2022/11/03 04:03:05;;;;;;;19.08;7.57;;;;;;;16.07;66.07;94999.44;5032754;28;20286;-60
2022/11/03 04:05:31;;;;;;;13.50;7.30;;;;;;;16.11;66.03;95003.28;5032546;28;20301;-61
2022/11/03 04:07:57;;;;;;;15.32;7.88;;;;;;;16.06;66.52;94998.63;5032640;28;20329;-61
2022/11/03 04:10:23;;;;;;;13.60;6.90;;;;;;;16.02;66.31;95001.66;5032418;28;20651;-61
2022/11/03 04:23:48;;;;;;;14.43;8.10;;;;;;;15.91;66.88;94997.59;5052592;28;20212;-62
2022/11/03 04:26:16;;;;;;;17.17;8.40;;;;;;;15.76;67.88;94976.84;5052812;28;20683;-60
2022/11/03 04:28:42;;;;;;;16.92;8.48;;;;;;;15.74;68.06;94967.72;5052332;28;20181;-60
2022/11/03 04:31:16;;;;;;;14.82;8.82;;;;;;;15.55;68.59;94965.38;5052594;28;20228;-61
2022/11/03 04:33:42;;;;;;;16.52;8.90;;;;;;;15.54;69.03;94954.31;5051403;28;20177;-61
2022/11/03 04:36:20;;;;;;;18.80;8.25;;;;;;;15.49;69.45;94951.44;5052297;28;20197;-61
2022/11/03 04:38:47;;;;;;;17.58;9.23;;;;;;;15.24;70.35;94948.81;5052677;28;20196;-60
2022/11/03 04:41:19;;;;;;;14.70;8.82;;;;;;;15.06;71.38;94931.75;5052443;28;20623;-62
2022/11/03 04:43:45;;;;;;;14.90;8.82;;;;;;;15.00;71.96;94934.13;5052262;28;20254;-62
2022/11/03 04:46:14;;;;;;;15.75;8.50;;;;;;;14.98;72.44;94931.72;5052179;28;20186;-61
2022/11/03 04:48:40;;;;;;;15.10;9.30;;;;;;;15.10;71.86;94939.94;5051838;28;20543;-61
2022/11/03 04:51:17;;;;;;;14.73;8.88;;;;;;;15.21;71.39;94956.81;5052059;28;20291;-62
2022/11/03 04:53:51;;;;;;;19.23;8.65;;;;;;;15.22;71.51;94954.09;5051883;28;20189;-60
2022/11/03 04:56:20;;;;;;;19.70;9.27;;;;;;;15.19;71.98;94959.50;5034234;28;20288;-61
2022/11/03 04:58:47;;;;;;;18.42;9.50;;;;;;;15.13;72.22;94955.81;5034123;28;20181;-60
2022/11/03 05:01:15;;;;;;;17.95;9.15;;;;;;;15.16;72.54;94954.72;5051879;28;20197;-60
2022/11/03 05:03:42;;;;;;;19.63;9.50;;;;;;;15.26;72.10;94957.97;5052027;28;20210;-60
2022/11/03 05:06:14;;;;;;;17.33;9.25;;;;;;;15.27;72.22;94963.91;5050903;28;20205;-60
2022/11/03 05:08:43;;;;;;;16.80;10.02;;;;;;;15.25;72.17;94970.94;5052074;28;20185;-59
2022/11/03 05:11:33;;;;;;;13.15;8.77;;;;;;;15.30;72.42;94971.28;5051856;28;20276;-59
2022/11/03 05:14:12;;;;;;;14.30;8.88;;;;;;;15.37;71.72;94983.31;5040957;28;20666;-62
2022/11/03 05:16:38;;;;;;;14.95;9.13;;;;;;;15.45;71.79;94988.56;5052095;28;20271;-62
2022/11/03 05:19:14;;;;;;;15.18;8.82;;;;;;;15.58;71.23;95003.50;5051812;28;20205;-61
2022/11/03 05:21:39;;;;;;;16.45;9.35;;;;;;;15.58;71.56;94988.13;5050997;28;20606;-63
2022/11/03 05:24:11;;;;;;;15.80;9.10;;;;;;;15.65;71.05;95007.09;5051617;28;20309;-62
2022/11/03 05:26:37;;;;;;;14.38;8.18;;;;;;;15.64;71.04;95008.03;5051595;28;20268;-62
2022/11/03 05:29:12;;;;;;;21.13;9.68;;;;;;;15.71;70.89;95020.09;5051613;28;20662;-62
2022/11/03 05:31:40;;;;;;;22.35;10.60;;;;;;;15.68;69.58;95040.09;5051448;28;20264;-62
2022/11/03 05:34:33;;;;;;;26.92;11.13;;;;;;;15.69;68.95;95055.34;5051273;28;20215;-60
2022/11/03 05:37:12;;;;;;;17.02;8.85;;;;;;;15.65;69.01;95061.72;5051393;28;20193;-60
2022/11/03 05:39:42;;;;;;;20.17;9.95;;;;;;;15.51;69.39;95046.09;5051411;28;20205;-60
2022/11/03 05:42:30;;;;;;;20.25;9.38;;;;;;;15.49;69.84;95038.56;5051399;28;20185;-60
2022/11/03 05:44:56;;;;;;;22.02;9.35;;;;;;;15.45;70.24;95039.81;5051333;28;20221;-61
2022/11/03 05:47:28;;;;;;;17.52;9.77;;;;;;;15.43;70.57;95034.00;5051332;28;20747;-60
2022/11/03 05:50:10;;;;;;;22.92;9.90;;;;;;;15.30;71.93;95025.06;5051077;28;20209;-61
2022/11/03 05:52:36;;;;;;;17.10;9.25;;;;;;;15.40;71.72;95036.03;5051171;28;20217;-61
2022/11/03 05:55:02;;;;;;;19.23;10.45;;;;;;;15.42;71.52;95034.13;5051426;28;20240;-60
2022/11/03 05:57:29;;;;;;;16.10;10.10;;;;;;;15.50;71.56;95034.22;5051062;28;20212;-59
2022/11/03 05:59:55;;;;;;;23.80;10.65;;;;;;;15.48;72.11;95038.69;5051075;28;20565;-61
2022/11/03 06:02:38;;;;;;;18.60;10.38;;;;;;;15.54;71.88;95046.59;5050995;28;20196;-61
2022/11/03 06:05:23;;;;;;;18.88;10.00;;;;;;;15.74;78.07;95011.28;5051078;28;20244;-62
2022/11/03 06:07:54;;;;;;;21.60;11.23;;;;;;;15.68;72.36;95099.03;5051249;28;20212;-59
2022/11/03 06:10:48;;;;;;;21.58;10.85;;;;;;;15.73;72.40;95087.41;5050998;28;20247;-59
2022/11/03 06:13:19;;;;;;;21.85;10.98;;;;;;;15.66;71.24;95099.19;5044690;28;20214;-60
2022/11/03 06:15:46;;;;;;;22.08;10.45;;;;;;;15.71;71.41;95099.56;5032867;28;20245;-60
2022/11/03 06:18:20;;;;;;;25.10;10.98;;;;;;;15.89;70.15;95132.84;5051092;28;20262;-60
2022/11/03 06:20:56;;;;;;;18.10;10.80;;;;;;;15.66;71.00;95111.22;5050858;28;20221;-58
2022/11/03 06:23:22;;;;;;;22.92;11.00;;;;;;;15.66;71.10;95108.66;5049558;28;20226;-60
2022/11/03 06:25:49;;;;;;;25.20;10.75;;;;;;;15.65;71.40;95101.94;5050507;28;20240;-60
2022/11/03 06:28:27;;;;;;;21.90;11.55;;;;;;;15.73;71.62;95101.97;5051351;28;20181;-61
2022/11/03 06:30:52;;;;;;;20.52;12.15;;;;;;;15.67;72.03;95093.13;5050561;28;20217;-61
2022/11/03 06:33:22;;;;;;;24.90;11.23;;;;;;;15.68;72.40;95088.78;5031609;28;20675;-61
2022/11/03 06:35:50;;;;;;;20.10;12.73;;;;;;;15.92;71.80;95112.03;5050317;28;20298;-61
2022/11/03 06:38:22;;;;;;;19.48;11.85;;;;;;;15.92;71.71;95115.41;5050691;28;20177;-62
2022/11/03 06:40:51;;;;;;;24.35;13.48;;;;;;;16.01;70.56;95146.22;5049292;28;20262;-60
2022/11/03 06:43:20;;;;;;;21.60;12.52;;;;;;;16.15;70.38;95140.53;5050678;28;20640;-61
2022/11/03 06:45:58;;;;;;;23.45;12.52;;;;;;;15.93;71.76;95117.03;5050607;28;20308;-60
2022/11/03 06:48:27;;;;;;;25.95;13.60;;;;;;;16.04;72.26;95110.81;5050834;28;20181;-61
2022/11/03 06:50:54;;;;;;;25.15;13.60;;;;;;;16.13;72.28;95120.19;5050194;28;20296;-61
2022/11/03 06:53:25;;;;;;;26.25;13.57;;;;;;;16.13;71.51;95134.75;5050510;28;20189;-60
2022/11/03 06:55:51;;;;;;;27.85;13.15;;;;;;;16.38;69.63;95162.97;5050211;28;20231;-62
2022/11/03 06:58:31;;;;;;;26.13;13.95;;;;;;;16.40;69.31;95162.81;5050614;28;20194;-60
2022/11/03 07:01:00;;;;;;;26.95;12.60;;;;;;;16.35;69.37;95165.84;5050352;28;20656;-60
2022/11/03 07:03:36;;;;;;;27.95;13.40;;;;;;;16.38;69.06;95165.53;5050450;28;20239;-60
2022/11/03 07:06:23;;;;;;;23.42;13.80;;;;;;;16.30;69.53;95157.78;5050330;28;20231;-61
2022/11/03 07:08:58;;;;;;;24.40;12.88;;;;;;;16.32;69.39;95155.88;5032308;28;20589;-59
2022/11/03 07:11:25;;;;;;;23.92;13.73;;;;;;;16.12;70.12;95131.38;5050199;28;20189;-61
2022/11/03 07:14:11;;;;;;;20.88;13.32;;;;;;;16.07;70.83;95113.09;5050491;28;20262;-59
2022/11/03 07:16:44;;;;;;;31.13;13.75;;;;;;;16.15;70.59;95127.72;5049987;28;20193;-60
2022/11/03 07:19:23;;;;;;;19.38;12.98;;;;;;;16.29;70.34;95133.09;5050220;28;20208;-60
2022/11/03 07:21:53;;;;;;;23.10;12.60;;;;;;;16.35;69.38;95145.31;5050123;28;20759;-60
2022/11/03 07:24:28;;;;;;;30.35;12.52;;;;;;;16.23;69.96;95136.28;5050347;28;20734;-60
2022/11/03 07:27:09;;;;;;;21.75;12.55;;;;;;;16.41;69.99;95136.19;5049853;28;20197;-60
2022/11/03 07:29:34;;;;;;;26.63;13.82;;;;;;;16.63;69.56;95149.31;5049817;28;20213;-61
2022/11/03 07:32:00;;;;;;;22.98;12.75;;;;;;;16.76;69.25;95149.72;5049737;28;20691;-61
2022/11/03 07:34:32;;;;;;;21.15;13.27;;;;;;;16.82;68.61;95168.81;5050134;28;20206;-60
2022/11/03 07:36:58;;;;;;;19.35;13.05;;;;;;;16.95;68.68;95158.91;5049716;28;20790;-61
2022/11/03 07:39:28;;;;;;;27.45;14.20;;;;;;;16.89;67.99;95174.16;5048558;28;20304;-60
2022/11/03 07:41:53;;;;;;;21.83;13.85;;;;;;;17.07;67.42;95182.56;5049606;28;20268;-61
2022/11/03 07:44:20;;;;;;;27.30;14.07;;;;;;;17.26;67.03;95192.56;5050298;28;20777;-61
2022/11/03 07:46:48;;;;;;;32.67;15.43;;;;;;;17.13;66.50;95189.66;5051813;28;20201;-60
2022/11/03 07:49:24;;;;;;;24.70;14.10;;;;;;;17.34;65.82;95197.72;5053199;28;20212;-61
2022/11/03 07:51:51;;;;;;;29.77;15.85;;;;;;;17.41;65.65;95201.28;5053172;28;20185;-60
2022/11/03 07:54:22;;;;;;;28.85;15.07;;;;;;;17.39;65.84;95193.69;5052840;28;20286;-60
2022/11/03 07:56:52;;;;;;;27.02;15.05;;;;;;;17.43;65.55;95194.22;5052967;28;20204;-60
2022/11/03 07:59:31;;;;;;;25.02;14.50;;;;;;;17.76;64.81;95210.50;5052761;28;20217;-61
2022/11/03 08:01:58;;;;;;;33.63;15.63;;;;;;;17.93;64.52;95207.78;5052747;28;20185;-60
2022/11/03 08:04:27;;;;;;;28.98;14.77;;;;;;;18.12;64.44;95216.97;5052925;28;20297;-60
2022/11/03 08:06:52;;;;;;;34.97;16.05;;;;;;;18.20;63.88;95217.72;5052846;28;20197;-60
2022/11/03 08:09:18;;;;;;;32.28;17.17;;;;;;;18.44;62.87;95238.34;5052854;28;20229;-61
2022/11/03 08:11:44;;;;;;;30.05;17.10;;;;;;;18.33;62.65;95227.53;5052807;28;20197;-61
2022/11/03 08:14:10;;;;;;;28.67;16.83;;;;;;;18.72;61.88;95230.25;5052679;28;20743;-61
2022/11/03 08:16:36;;;;;;;31.92;16.10;;;;;;;19.00;62.38;95221.13;5052681;28;20224;-61
2022/11/03 08:19:01;;;;;;;29.40;16.33;;;;;;;19.18;61.61;95226.84;5052859;28;20692;-60
2022/11/03 08:21:27;;;;;;;28.30;16.48;;;;;;;19.34;60.24;95247.44;5052605;28;20200;-60
2022/11/03 08:23:52;;;;;;;30.67;17.48;;;;;;;19.29;60.17;95239.34;5052653;28;20213;-60
2022/11/03 08:26:19;;;;;;;28.35;16.48;;;;;;;19.37;59.76;95241.97;5051174;28;20656;-60
2022/11/03 08:28:44;;;;;;;28.83;16.50;;;;;;;19.72;59.91;95238.84;5052550;28;20186;-61
2022/11/03 08:31:10;;;;;;;29.38;16.38;;;;;;;19.99;59.63;95242.69;5052269;28;20720;-60
2022/11/03 08:33:35;;;;;;;24.92;15.25;;;;;;;20.27;58.82;95248.94;5052273;28;20627;-60
2022/11/03 08:36:03;;;;;;;27.75;15.52;;;;;;;20.46;57.04;95281.25;5052160;28;20185;-59
2022/11/03 08:38:29;;;;;;;27.88;15.68;;;;;;;20.58;57.12;95274.69;5052045;28;20706;-60
2022/11/03 08:40:55;;;;;;;27.35;15.65;;;;;;;20.93;55.89;95289.50;5034321;28;20688;-60
2022/11/03 08:43:21;;;;;;;31.02;16.30;;;;;;;21.11;55.95;95286.63;5052305;28;20656;-60
2022/11/03 08:45:46;;;;;;;28.95;15.68;;;;;;;21.29;55.34;95295.59;5051946;28;20244;-60
2022/11/03 08:48:12;;;;;;;27.98;14.77;;;;;;;21.56;54.16;95307.91;5052402;28;20185;-60
2022/11/03 08:50:38;;;;;;;21.85;14.63;;;;;;;21.73;51.88;95352.50;5052035;28;20217;-61
2022/11/03 08:53:03;;;;;;;24.13;14.50;;;;;;;21.92;51.31;95358.94;5052171;28;20193;-59
2022/11/03 08:55:29;;;;;;;24.90;13.95;;;;;;;22.07;51.15;95351.94;5052029;28;20209;-61
2022/11/03 08:57:54;;;;;;;25.95;15.00;;;;;;;22.17;50.46;95353.25;5033326;28;20703;-60
2022/11/03 09:00:21;;;;;;;28.30;15.38;;;;;;;22.30;50.02;95360.34;5052077;28;20218;-60
2022/11/03 09:02:47;;;;;;;25.15;15.65;;;;;;;22.43;50.69;95347.50;5051951;28;20200;-60
2022/11/03 09:05:12;;;;;;;26.33;15.63;;;;;;;22.71;49.55;95370.91;5050435;28;20213;-61
2022/11/03 09:07:39;;;;;;;26.52;16.05;;;;;;;22.68;49.63;95353.97;5052080;28;20188;-60
2022/11/03 09:10:08;;;;;;;31.17;17.35;;;;;;;22.78;49.92;95348.44;5050480;28;20220;-59
2022/11/03 09:12:37;;;;;;;28.50;15.80;;;;;;;22.96;49.10;95357.38;5051889;28;20667;-59
2022/11/03 09:15:04;;;;;;;32.80;17.23;;;;;;;23.16;49.20;95353.13;5051821;28;20213;-60
2022/11/03 09:17:30;;;;;;;25.58;15.88;;;;;;;23.52;47.51;95370.34;5051773;28;20197;-61
2022/11/03 09:19:55;;;;;;;27.42;17.65;;;;;;;23.74;47.80;95367.47;5051697;28;20290;-60
2022/11/03 09:22:21;;;;;;;23.55;15.70;;;;;;;23.53;46.15;95377.13;5051463;28;20242;-60
2022/11/03 09:24:47;;;;;;;27.10;15.23;;;;;;;23.60;46.26;95362.38;5033728;28;20255;-61
2022/11/03 09:27:12;;;;;;;26.13;15.40;;;;;;;23.76;46.59;95356.88;5050216;28;20625;-60
2022/11/03 09:29:38;;;;;;;23.48;14.50;;;;;;;23.66;45.89;95372.81;5051442;28;20242;-61
2022/11/03 09:32:05;;;;;;;22.60;15.02;;;;;;;23.78;44.58;95371.28;5051680;28;20223;-60
2022/11/03 09:34:30;;;;;;;33.78;15.85;;;;;;;24.01;44.43;95381.38;5051777;23;20250;-60
2022/11/03 09:36:56;;;;;;;31.00;15.50;;;;;;;23.62;43.89;95386.38;5031650;28;20632;-60
2022/11/03 09:39:21;;;;;;;27.67;14.32;;;;;;;23.92;43.94;95374.72;5031588;28;20246;-60
2022/11/03 09:41:48;;;;;;;24.63;13.77;;;;;;;23.42;45.31;95338.72;5031557;28;20232;-60
2022/11/03 09:44:13;;;;;;;24.38;13.00;;;;;;;23.83;45.00;95337.75;5031591;28;20217;-60
2022/11/03 09:46:39;;;;;;;20.13;13.45;;;;;;;23.11;44.89;95344.28;5013470;28;20186;-60
2022/11/03 09:49:05;;;;;;;25.00;12.90;;;;;;;22.52;45.32;95316.09;5031543;28;20213;-59
2022/11/03 09:51:33;;;;;;;22.42;15.10;;;;;;;22.82;46.10;95303.00;5031323;28;20186;-59
2022/11/03 09:54:03;;;;;;;24.42;14.27;;;;;;;23.16;46.07;95298.66;5014117;28;20271;-60
2022/11/03 09:56:29;;;;;;;25.30;13.77;;;;;;;23.56;43.99;95350.78;5031276;28;20581;-61
2022/11/03 09:58:54;;;;;;;23.20;13.90;;;;;;;23.58;44.52;95318.44;5039787;22;20206;-61
2022/11/03 10:01:20;;;;;;;23.10;12.68;;;;;;;23.45;44.12;95327.97;5070121;28;20544;-61
2022/11/03 10:03:46;;;;;;;25.75;12.85;;;;;;;23.88;44.28;95331.94;5070965;28;20232;-60
2022/11/03 10:06:11;;;;;;;31.65;14.02;;;;;;;23.93;42.30;95371.94;5059990;22;20716;-60
2022/11/03 10:08:40;;;;;;;20.35;12.52;;;;;;;23.83;42.92;95352.50;5030804;28;20198;-62
2022/11/03 10:11:08;;;;;;;23.15;12.35;;;;;;;23.52;42.80;95339.19;5031034;28;20194;-61
2022/11/03 10:13:37;;;;;;;18.75;12.45;;;;;;;23.94;43.18;95323.38;5031095;28;20197;-62
2022/11/03 10:16:06;;;;;;;25.48;11.98;;;;;;;24.16;43.47;95311.88;5031336;28;20278;-60
2022/11/03 10:18:33;;;;;;;21.85;13.05;;;;;;;24.31;41.59;95351.50;5030678;28;20188;-63
2022/11/03 10:21:28;;;;;;;20.38;12.27;;;;;;;24.04;41.76;95331.63;5031056;28;20224;-63
2022/11/03 10:23:54;;;;;;;21.23;12.70;;;;;;;23.77;42.44;95302.16;5025966;28;20291;-64
2022/11/03 10:26:20;;;;;;;24.70;12.25;;;;;;;23.68;42.18;95315.47;5031082;28;20303;-61
2022/11/03 10:29:01;;;;;;;20.25;11.88;;;;;;;23.85;41.57;95308.97;5031009;28;20182;-61
2022/11/03 10:31:35;;;;;;;19.88;11.40;;;;;;;23.96;41.32;95322.19;5030853;28;20194;-60
2022/11/03 10:34:00;;;;;;;25.02;9.90;;;;;;;23.47;40.67;95328.59;5030676;28;20217;-60
2022/11/03 10:36:31;;;;;;;17.35;9.15;;;;;;;23.26;41.17;95309.47;5030974;28;20190;-60
2022/11/03 10:38:57;;;;;;;22.50;9.30;;;;;;;22.90;41.27;95285.50;5030604;28;20209;-62
2022/11/03 10:41:25;;;;;;;19.45;9.15;;;;;;;23.01;40.95;95303.13;5030817;28;20747;-61
2022/11/03 10:44:19;;;;;;;18.35;9.05;;;;;;;23.19;40.94;95293.06;5030487;28;20289;-63
2022/11/03 10:47:02;;;;;;;16.90;8.90;;;;;;;23.56;41.55;95272.88;5030572;28;20222;-62
2022/11/03 10:49:29;;;;;;;20.83;9.27;;;;;;;23.86;41.08;95289.78;5013321;28;20214;-60
2022/11/03 10:52:19;;;;;;;28.13;11.50;;;;;;;23.64;40.14;95307.28;5030597;28;20205;-59
2022/11/03 10:54:45;;;;;;;20.08;8.57;;;;;;;23.35;40.62;95295.38;5030046;28;20782;-59
2022/11/03 10:57:11;;;;;;;9.30;6.20;;;;;;;23.26;39.51;95306.88;5029428;28;20194;-58
2022/11/03 10:59:37;;;;;;;15.20;7.13;;;;;;;23.83;37.72;95349.91;5030251;28;20564;-59
2022/11/03 11:02:14;;;;;;;15.88;6.05;;;;;;;23.51;36.81;95353.16;5030607;28;20567;-60
2022/11/03 11:04:40;;;;;;;9.88;5.78;;;;;;;23.42;37.75;95323.16;5030322;28;20217;-60
2022/11/03 11:07:33;;;;;;;15.10;6.00;;;;;;;23.31;38.58;95294.16;5030722;28;20197;-59
2022/11/03 11:10:21;;;;;;;13.63;6.05;;;;;;;23.43;38.61;95291.03;5030311;28;20219;-62
2022/11/03 11:13:13;;;;;;;14.65;6.90;;;;;;;23.79;38.54;95291.56;5030301;28;20194;-60
2022/11/03 11:15:58;;;;;;;14.95;6.63;;;;;;;23.98;37.65;95307.19;5030435;28;20707;-62
2022/11/03 11:18:30;;;;;;;12.65;6.05;;;;;;;23.91;37.51;95296.00;5030312;28;20192;-60
2022/11/03 11:21:13;;;;;;;16.13;7.03;;;;;;;24.20;36.87;95309.69;5032788;28;20198;-60
2022/11/03 11:23:40;;;;;;;12.77;5.72;;;;;;;24.42;37.08;95298.91;5078051;22;20300;-60
2022/11/03 11:26:13;;;;;;;20.95;7.18;;;;;;;24.29;37.39;95282.50;5073468;28;20180;-60
2022/11/03 11:28:39;;;;;;;12.77;6.95;;;;;;;24.16;37.06;95288.47;5073642;28;20185;-60
2022/11/03 11:31:26;;;;;;;13.43;6.70;;;;;;;24.28;36.92;95292.09;5073362;28;20239;-60
2022/11/03 11:34:17;;;;;;;21.60;8.10;;;;;;;24.39;37.26;95264.72;5073256;28;20308;-62
2022/11/03 11:37:06;;;;;;;13.13;6.22;;;;;;;24.43;37.37;95261.53;5073440;28;20522;-60
2022/11/03 11:39:32;;;;;;;17.08;7.35;;;;;;;24.48;36.30;95268.72;5073326;28;20223;-61
2022/11/03 11:42:15;;;;;;;18.58;11.32;;;;;;;24.70;36.78;95268.34;5043677;22;20720;-63
2022/11/03 11:44:48;;;;;;;15.13;6.75;;;;;;;24.81;36.18;95274.72;5033523;28;20229;-61
2022/11/03 11:47:26;;;;;;;18.10;7.50;;;;;;;24.64;36.65;95248.31;5033414;28;20193;-61
2022/11/03 11:50:10;;;;;;;15.40;7.55;;;;;;;24.67;36.67;95245.31;5033379;28;20241;-61
2022/11/03 11:52:47;;;;;;;11.52;5.25;;;;;;;24.65;36.24;95256.91;5015240;28;20186;-61
2022/11/03 11:55:28;;;;;;;11.48;5.97;;;;;;;24.86;35.43;95262.75;5033323;28;20240;-60